sensor_id;sensor_type;location;lat;lon;timestamp;pressure;altitude;pressure_sealevel;temperature;humidity
48718;BME280;34521;33.042;-96.586;2023-12-04T00:01:23;99224.39;;;21.06;25.00
48718;BME280;34521;33.042;-96.586;2023-12-04T00:03:48;99229.36;;;20.48;25.18
48718;BME280;34521;33.042;-96.586;2023-12-04T00:06:13;99225.17;;;20.71;25.18
48718;BME280;34521;33.042;-96.586;2023-12-04T00:08:39;99224.98;;;20.52;25.12
48718;BME280;34521;33.042;-96.586;2023-12-04T00:11:04;99230.71;;;20.50;25.10
48718;BME280;34521;33.042;-96.586;2023-12-04T00:13:28;99232.50;;;20.29;25.35
48718;BME280;34521;33.042;-96.586;2023-12-04T00:15:53;99236.21;;;20.41;25.21
48718;BME280;34521;33.042;-96.586;2023-12-04T00:18:18;99238.52;;;20.63;25.23
48718;BME280;34521;33.042;-96.586;2023-12-04T00:20:43;99243.75;;;20.44;25.21
48718;BME280;34521;33.042;-96.586;2023-12-04T00:23:08;99248.88;;;20.39;25.22
48718;BME280;34521;33.042;-96.586;2023-12-04T00:25:34;99255.04;;;20.36;25.27
48718;BME280;34521;33.042;-96.586;2023-12-04T00:27:59;99255.40;;;20.33;25.26
48718;BME280;34521;33.042;-96.586;2023-12-04T00:30:25;99254.15;;;20.18;25.35
48718;BME280;34521;33.042;-96.586;2023-12-04T00:32:50;99256.16;;;20.60;25.44
48718;BME280;34521;33.042;-96.586;2023-12-04T00:35:15;99254.01;;;20.31;25.32
48718;BME280;34521;33.042;-96.586;2023-12-04T00:37:40;99259.07;;;20.50;25.14
48718;BME280;34521;33.042;-96.586;2023-12-04T00:40:06;99256.81;;;21.77;23.61
48718;BME280;34521;33.042;-96.586;2023-12-04T00:42:31;99260.44;;;21.10;23.48
48718;BME280;34521;33.042;-96.586;2023-12-04T00:44:56;99263.30;;;19.69;25.74
48718;BME280;34521;33.042;-96.586;2023-12-04T00:47:21;99268.30;;;19.55;26.12
48718;BME280;34521;33.042;-96.586;2023-12-04T00:49:46;99270.82;;;19.45;26.58
48718;BME280;34521;33.042;-96.586;2023-12-04T00:52:11;99275.67;;;19.71;26.67
48718;BME280;34521;33.042;-96.586;2023-12-04T00:54:38;99277.28;;;19.19;27.15
48718;BME280;34521;33.042;-96.586;2023-12-04T00:57:01;99276.60;;;20.12;25.98
48718;BME280;34521;33.042;-96.586;2023-12-04T00:59:26;99277.34;;;20.79;25.15
48718;BME280;34521;33.042;-96.586;2023-12-04T01:01:51;99285.43;;;20.99;24.92
48718;BME280;34521;33.042;-96.586;2023-12-04T01:04:16;99290.90;;;20.54;24.80
48718;BME280;34521;33.042;-96.586;2023-12-04T01:06:41;99292.61;;;20.75;24.64
48718;BME280;34521;33.042;-96.586;2023-12-04T01:09:06;99294.30;;;20.64;24.74
48718;BME280;34521;33.042;-96.586;2023-12-04T01:11:31;99295.60;;;20.45;24.92
48718;BME280;34521;33.042;-96.586;2023-12-04T01:13:56;99299.59;;;20.73;24.69
48718;BME280;34521;33.042;-96.586;2023-12-04T01:16:21;99297.84;;;20.54;25.08
48718;BME280;34521;33.042;-96.586;2023-12-04T01:18:46;99299.59;;;21.22;24.51
48718;BME280;34521;33.042;-96.586;2023-12-04T01:21:12;99296.48;;;20.90;24.58
48718;BME280;34521;33.042;-96.586;2023-12-04T01:23:37;99299.49;;;20.76;24.71
48718;BME280;34521;33.042;-96.586;2023-12-04T01:26:02;99301.80;;;20.72;24.80
48718;BME280;34521;33.042;-96.586;2023-12-04T01:28:27;99300.25;;;20.87;24.62
48718;BME280;34521;33.042;-96.586;2023-12-04T01:30:52;99295.53;;;20.79;24.73
48718;BME280;34521;33.042;-96.586;2023-12-04T01:33:17;99290.46;;;21.06;24.48
48718;BME280;34521;33.042;-96.586;2023-12-04T01:35:42;99293.58;;;21.51;24.33
48718;BME280;34521;33.042;-96.586;2023-12-04T01:38:07;99291.48;;;21.68;23.93
48718;BME280;34521;33.042;-96.586;2023-12-04T01:40:32;99289.44;;;22.41;23.30
48718;BME280;34521;33.042;-96.586;2023-12-04T01:42:57;99283.98;;;23.20;22.66
48718;BME280;34521;33.042;-96.586;2023-12-04T01:45:22;99283.53;;;22.63;22.89
48718;BME280;34521;33.042;-96.586;2023-12-04T01:47:48;99285.75;;;22.35;23.17
48718;BME280;34521;33.042;-96.586;2023-12-04T01:50:13;99286.72;;;22.36;23.30
48718;BME280;34521;33.042;-96.586;2023-12-04T01:52:38;99287.06;;;22.14;23.63
48718;BME280;34521;33.042;-96.586;2023-12-04T01:55:03;99287.79;;;22.14;23.76
48718;BME280;34521;33.042;-96.586;2023-12-04T01:57:28;99279.02;;;22.64;23.34
48718;BME280;34521;33.042;-96.586;2023-12-04T01:59:53;99283.16;;;22.12;23.68
48718;BME280;34521;33.042;-96.586;2023-12-04T02:02:18;99285.92;;;21.66;24.09
48718;BME280;34521;33.042;-96.586;2023-12-04T02:04:43;99286.97;;;21.59;24.18
48718;BME280;34521;33.042;-96.586;2023-12-04T02:07:08;99288.22;;;21.02;24.47
48718;BME280;34521;33.042;-96.586;2023-12-04T02:09:33;99286.48;;;21.06;24.65
48718;BME280;34521;33.042;-96.586;2023-12-04T02:11:59;99285.02;;;21.34;24.43
48718;BME280;34521;33.042;-96.586;2023-12-04T02:14:23;99277.10;;;21.35;24.41
48718;BME280;34521;33.042;-96.586;2023-12-04T02:16:48;99278.41;;;21.02;24.73
48718;BME280;34521;33.042;-96.586;2023-12-04T02:19:13;99281.04;;;21.04;24.70
48718;BME280;34521;33.042;-96.586;2023-12-04T02:21:38;99285.34;;;21.21;24.53
48718;BME280;34521;33.042;-96.586;2023-12-04T02:24:04;99291.06;;;20.87;24.90
48718;BME280;34521;33.042;-96.586;2023-12-04T02:26:34;99288.11;;;20.50;24.98
48718;BME280;34521;33.042;-96.586;2023-12-04T02:28:58;99283.90;;;20.56;25.41
48718;BME280;34521;33.042;-96.586;2023-12-04T02:31:19;99290.08;;;20.57;25.36
48718;BME280;34521;33.042;-96.586;2023-12-04T02:33:44;99292.03;;;19.78;25.93
48718;BME280;34521;33.042;-96.586;2023-12-04T02:36:10;99294.33;;;20.72;25.49
48718;BME280;34521;33.042;-96.586;2023-12-04T02:38:34;99294.67;;;20.68;24.96
48718;BME280;34521;33.042;-96.586;2023-12-04T02:40:59;99292.35;;;20.18;25.47
48718;BME280;34521;33.042;-96.586;2023-12-04T02:43:24;99297.15;;;19.77;26.24
48718;BME280;34521;33.042;-96.586;2023-12-04T02:45:49;99300.02;;;20.12;26.10
48718;BME280;34521;33.042;-96.586;2023-12-04T02:48:14;99306.37;;;21.32;24.75
48718;BME280;34521;33.042;-96.586;2023-12-04T02:50:39;99308.06;;;21.71;23.93
48718;BME280;34521;33.042;-96.586;2023-12-04T02:53:04;99304.52;;;22.59;23.20
48718;BME280;34521;33.042;-96.586;2023-12-04T02:55:29;99304.64;;;22.61;23.16
48718;BME280;34521;33.042;-96.586;2023-12-04T02:57:54;99300.79;;;21.76;23.66
48718;BME280;34521;33.042;-96.586;2023-12-04T03:00:19;99300.89;;;21.63;24.05
48718;BME280;34521;33.042;-96.586;2023-12-04T03:02:45;99301.83;;;21.40;24.26
48718;BME280;34521;33.042;-96.586;2023-12-04T03:05:09;99306.98;;;20.87;24.53
48718;BME280;34521;33.042;-96.586;2023-12-04T03:07:35;99312.37;;;21.26;24.47
48718;BME280;34521;33.042;-96.586;2023-12-04T03:10:00;99317.33;;;20.96;24.69
48718;BME280;34521;33.042;-96.586;2023-12-04T03:12:25;99319.53;;;21.27;24.40
48718;BME280;34521;33.042;-96.586;2023-12-04T03:14:50;99323.91;;;21.50;24.17
48718;BME280;34521;33.042;-96.586;2023-12-04T03:17:15;99324.79;;;21.17;24.51
48718;BME280;34521;33.042;-96.586;2023-12-04T03:19:40;99323.04;;;21.08;24.53
48718;BME280;34521;33.042;-96.586;2023-12-04T03:22:05;99322.34;;;21.10;24.47
48718;BME280;34521;33.042;-96.586;2023-12-04T03:24:30;99325.87;;;21.18;24.40
48718;BME280;34521;33.042;-96.586;2023-12-04T03:26:55;99326.15;;;21.16;24.40
48718;BME280;34521;33.042;-96.586;2023-12-04T03:29:20;99325.16;;;21.26;24.26
48718;BME280;34521;33.042;-96.586;2023-12-04T03:31:45;99329.21;;;21.27;24.22
48718;BME280;34521;33.042;-96.586;2023-12-04T03:34:10;99333.51;;;20.88;24.78
48718;BME280;34521;33.042;-96.586;2023-12-04T03:36:35;99335.69;;;21.13;24.39
48718;BME280;34521;33.042;-96.586;2023-12-04T03:39:01;99339.90;;;20.82;24.64
48718;BME280;34521;33.042;-96.586;2023-12-04T03:41:26;99347.62;;;20.02;26.15
48718;BME280;34521;33.042;-96.586;2023-12-04T03:43:51;99349.77;;;22.05;23.92
48718;BME280;34521;33.042;-96.586;2023-12-04T03:46:16;99351.01;;;21.66;24.02
48718;BME280;34521;33.042;-96.586;2023-12-04T03:48:41;99359.48;;;21.92;23.97
48718;BME280;34521;33.042;-96.586;2023-12-04T03:51:06;99361.73;;;22.07;23.95
48718;BME280;34521;33.042;-96.586;2023-12-04T03:53:31;99370.06;;;22.57;23.74
48718;BME280;34521;33.042;-96.586;2023-12-04T03:55:58;99380.93;;;22.48;23.72
48718;BME280;34521;33.042;-96.586;2023-12-04T03:58:21;99390.78;;;22.42;23.77
48718;BME280;34521;33.042;-96.586;2023-12-04T04:00:46;99390.00;;;22.63;23.84
48718;BME280;34521;33.042;-96.586;2023-12-04T04:03:11;99398.70;;;22.06;24.21
48718;BME280;34521;33.042;-96.586;2023-12-04T04:05:36;99469.91;;;22.35;24.15
48718;BME280;34521;33.042;-96.586;2023-12-04T04:08:02;99466.57;;;22.07;24.23
48718;BME280;34521;33.042;-96.586;2023-12-04T04:10:27;99484.23;;;22.41;23.97
48718;BME280;34521;33.042;-96.586;2023-12-04T04:12:52;99482.35;;;22.40;23.93
48718;BME280;34521;33.042;-96.586;2023-12-04T04:15:17;99491.68;;;22.29;24.06
48718;BME280;34521;33.042;-96.586;2023-12-04T04:17:42;99496.09;;;22.22;23.94
48718;BME280;34521;33.042;-96.586;2023-12-04T04:20:09;99506.82;;;22.08;24.17
48718;BME280;34521;33.042;-96.586;2023-12-04T04:22:32;99513.54;;;22.76;23.37
48718;BME280;34521;33.042;-96.586;2023-12-04T04:24:58;99520.88;;;23.13;22.93
48718;BME280;34521;33.042;-96.586;2023-12-04T04:27:22;99525.04;;;22.21;23.55
48718;BME280;34521;33.042;-96.586;2023-12-04T04:29:47;99524.24;;;22.54;23.17
48718;BME280;34521;33.042;-96.586;2023-12-04T04:32:13;99539.66;;;22.91;22.84
48718;BME280;34521;33.042;-96.586;2023-12-04T04:34:38;99539.28;;;22.39;23.00
48718;BME280;34521;33.042;-96.586;2023-12-04T04:37:03;99541.39;;;22.72;22.89
48718;BME280;34521;33.042;-96.586;2023-12-04T04:39:28;99533.06;;;21.38;24.05
48718;BME280;34521;33.042;-96.586;2023-12-04T04:41:53;99537.77;;;22.31;23.35
48718;BME280;34521;33.042;-96.586;2023-12-04T04:44:18;99545.91;;;22.98;22.81
48718;BME280;34521;33.042;-96.586;2023-12-04T04:46:43;99535.28;;;21.83;23.38
48718;BME280;34521;33.042;-96.586;2023-12-04T04:49:08;99544.94;;;20.34;24.99
48718;BME280;34521;33.042;-96.586;2023-12-04T04:51:34;99547.70;;;20.90;24.64
48718;BME280;34521;33.042;-96.586;2023-12-04T04:53:58;99545.01;;;21.82;23.86
48718;BME280;34521;33.042;-96.586;2023-12-04T04:56:23;99547.54;;;21.90;23.49
48718;BME280;34521;33.042;-96.586;2023-12-04T04:58:48;99555.35;;;22.09;23.51
48718;BME280;34521;33.042;-96.586;2023-12-04T05:01:15;99568.91;;;22.51;22.87
48718;BME280;34521;33.042;-96.586;2023-12-04T05:03:39;99585.83;;;23.18;22.47
48718;BME280;34521;33.042;-96.586;2023-12-04T05:06:04;99593.70;;;22.17;23.14
48718;BME280;34521;33.042;-96.586;2023-12-04T05:08:29;99596.21;;;22.07;23.48
48718;BME280;34521;33.042;-96.586;2023-12-04T05:10:54;99600.75;;;22.42;22.69
48718;BME280;34521;33.042;-96.586;2023-12-04T05:13:19;99607.24;;;22.40;23.06
48718;BME280;34521;33.042;-96.586;2023-12-04T05:15:44;99617.12;;;22.33;23.16
48718;BME280;34521;33.042;-96.586;2023-12-04T05:18:09;99620.08;;;22.58;22.88
48718;BME280;34521;33.042;-96.586;2023-12-04T05:20:34;99622.61;;;22.72;22.69
48718;BME280;34521;33.042;-96.586;2023-12-04T05:22:59;99626.75;;;21.14;23.81
48718;BME280;34521;33.042;-96.586;2023-12-04T05:25:24;99631.94;;;21.41;23.89
48718;BME280;34521;33.042;-96.586;2023-12-04T05:27:49;99634.80;;;22.54;22.76
48718;BME280;34521;33.042;-96.586;2023-12-04T05:30:15;99645.73;;;21.48;23.64
48718;BME280;34521;33.042;-96.586;2023-12-04T05:32:39;99649.33;;;21.75;23.45
48718;BME280;34521;33.042;-96.586;2023-12-04T05:35:05;99654.41;;;22.01;23.20
48718;BME280;34521;33.042;-96.586;2023-12-04T05:37:30;99653.94;;;22.68;22.86
48718;BME280;34521;33.042;-96.586;2023-12-04T05:39:54;99641.96;;;22.61;22.66
48718;BME280;34521;33.042;-96.586;2023-12-04T05:42:20;99653.84;;;21.95;23.42
48718;BME280;34521;33.042;-96.586;2023-12-04T05:44:45;99653.69;;;20.63;24.52
48718;BME280;34521;33.042;-96.586;2023-12-04T05:47:10;99663.04;;;19.77;25.77
48718;BME280;34521;33.042;-96.586;2023-12-04T05:49:35;99665.13;;;19.79;26.28
48718;BME280;34521;33.042;-96.586;2023-12-04T05:52:00;99668.75;;;19.89;25.75
48718;BME280;34521;33.042;-96.586;2023-12-04T05:54:25;99670.44;;;21.59;24.13
48718;BME280;34521;33.042;-96.586;2023-12-04T05:56:50;99669.23;;;22.17;23.06
48718;BME280;34521;33.042;-96.586;2023-12-04T05:59:15;99676.13;;;22.49;22.77
48718;BME280;34521;33.042;-96.586;2023-12-04T06:01:40;99679.98;;;21.29;23.80
48718;BME280;34521;33.042;-96.586;2023-12-04T06:04:05;99681.55;;;22.15;23.06
48718;BME280;34521;33.042;-96.586;2023-12-04T06:06:30;99683.71;;;22.58;22.52
48718;BME280;34521;33.042;-96.586;2023-12-04T06:08:55;99686.14;;;21.77;23.42
48718;BME280;34521;33.042;-96.586;2023-12-04T06:11:20;99682.78;;;21.64;23.41
48718;BME280;34521;33.042;-96.586;2023-12-04T06:13:46;99690.34;;;22.22;23.11
48718;BME280;34521;33.042;-96.586;2023-12-04T06:16:11;99705.04;;;21.71;23.30
48718;BME280;34521;33.042;-96.586;2023-12-04T06:18:36;99710.71;;;22.06;23.01
48718;BME280;34521;33.042;-96.586;2023-12-04T06:21:01;99715.53;;;21.78;23.17
48718;BME280;34521;33.042;-96.586;2023-12-04T06:23:26;99724.25;;;22.67;22.66
48718;BME280;34521;33.042;-96.586;2023-12-04T06:25:52;99723.96;;;22.46;22.57
48718;BME280;34521;33.042;-96.586;2023-12-04T06:28:16;99727.00;;;21.23;23.57
48718;BME280;34521;33.042;-96.586;2023-12-04T06:30:42;99731.50;;;22.17;22.99
48718;BME280;34521;33.042;-96.586;2023-12-04T06:33:07;99740.25;;;21.05;23.69
48718;BME280;34521;33.042;-96.586;2023-12-04T06:35:32;99754.73;;;22.34;22.73
48718;BME280;34521;33.042;-96.586;2023-12-04T06:37:57;99759.41;;;20.79;24.12
48718;BME280;34521;33.042;-96.586;2023-12-04T06:40:22;99761.40;;;21.08;23.90
48718;BME280;34521;33.042;-96.586;2023-12-04T06:42:47;99765.44;;;20.08;24.59
48718;BME280;34521;33.042;-96.586;2023-12-04T06:45:12;99762.88;;;20.81;24.23
48718;BME280;34521;33.042;-96.586;2023-12-04T06:47:37;99766.79;;;21.80;23.04
48718;BME280;34521;33.042;-96.586;2023-12-04T06:50:01;99765.02;;;22.17;22.73
48718;BME280;34521;33.042;-96.586;2023-12-04T06:52:26;99763.12;;;21.73;23.05
48718;BME280;34521;33.042;-96.586;2023-12-04T06:54:51;99760.79;;;21.77;23.07
48718;BME280;34521;33.042;-96.586;2023-12-04T06:57:16;99764.18;;;22.45;22.77
48718;BME280;34521;33.042;-96.586;2023-12-04T06:59:42;99765.31;;;21.65;23.15
48718;BME280;34521;33.042;-96.586;2023-12-04T07:02:07;99762.88;;;21.85;23.01
48718;BME280;34521;33.042;-96.586;2023-12-04T07:04:32;99761.78;;;21.68;23.29
48718;BME280;34521;33.042;-96.586;2023-12-04T07:06:57;99768.60;;;22.21;22.87
48718;BME280;34521;33.042;-96.586;2023-12-04T07:09:22;99772.65;;;22.15;22.86
48718;BME280;34521;33.042;-96.586;2023-12-04T07:11:47;99779.75;;;20.65;24.17
48718;BME280;34521;33.042;-96.586;2023-12-04T07:14:12;99783.20;;;21.14;23.75
48718;BME280;34521;33.042;-96.586;2023-12-04T07:16:41;99793.32;;;21.19;23.64
48718;BME280;34521;33.042;-96.586;2023-12-04T07:19:02;99802.79;;;21.19;23.42
48718;BME280;34521;33.042;-96.586;2023-12-04T07:21:27;99803.99;;;20.81;23.64
48718;BME280;34521;33.042;-96.586;2023-12-04T07:23:52;99800.15;;;21.05;23.67
48718;BME280;34521;33.042;-96.586;2023-12-04T07:26:17;99797.00;;;22.11;22.79
48718;BME280;34521;33.042;-96.586;2023-12-04T07:28:42;99797.38;;;22.10;22.58
48718;BME280;34521;33.042;-96.586;2023-12-04T07:31:07;99809.21;;;21.35;23.27
48718;BME280;34521;33.042;-96.586;2023-12-04T07:33:33;99817.44;;;22.07;22.73
48718;BME280;34521;33.042;-96.586;2023-12-04T07:35:57;99829.15;;;22.18;22.75
48718;BME280;34521;33.042;-96.586;2023-12-04T07:38:23;99839.48;;;21.58;23.08
48718;BME280;34521;33.042;-96.586;2023-12-04T07:40:48;99854.53;;;19.85;24.60
48718;BME280;34521;33.042;-96.586;2023-12-04T07:43:13;99858.87;;;19.63;25.07
48718;BME280;34521;33.042;-96.586;2023-12-04T07:45:38;99855.37;;;19.20;25.93
48718;BME280;34521;33.042;-96.586;2023-12-04T07:48:03;99849.31;;;19.89;25.36
48718;BME280;34521;33.042;-96.586;2023-12-04T07:50:28;99848.97;;;19.43;25.34
48718;BME280;34521;33.042;-96.586;2023-12-04T07:52:53;99848.18;;;21.18;23.83
48718;BME280;34521;33.042;-96.586;2023-12-04T07:55:18;99850.28;;;21.94;22.79
48718;BME280;34521;33.042;-96.586;2023-12-04T07:57:43;99857.36;;;21.19;23.24
48718;BME280;34521;33.042;-96.586;2023-12-04T08:00:09;99864.15;;;21.18;23.27
48718;BME280;34521;33.042;-96.586;2023-12-04T08:02:33;99862.63;;;21.74;22.99
48718;BME280;34521;33.042;-96.586;2023-12-04T08:04:58;99867.45;;;21.88;23.08
48718;BME280;34521;33.042;-96.586;2023-12-04T08:07:23;99866.05;;;21.83;22.94
48718;BME280;34521;33.042;-96.586;2023-12-04T08:09:48;99864.93;;;22.02;22.72
48718;BME280;34521;33.042;-96.586;2023-12-04T08:12:14;99871.73;;;22.44;22.25
48718;BME280;34521;33.042;-96.586;2023-12-04T08:14:39;99873.91;;;20.76;23.61
48718;BME280;34521;33.042;-96.586;2023-12-04T08:17:04;99874.23;;;20.22;24.20
48718;BME280;34521;33.042;-96.586;2023-12-04T08:19:29;99880.30;;;20.67;24.02
48718;BME280;34521;33.042;-96.586;2023-12-04T08:21:54;99881.96;;;21.35;23.58
48718;BME280;34521;33.042;-96.586;2023-12-04T08:24:19;99873.59;;;21.82;22.78
48718;BME280;34521;33.042;-96.586;2023-12-04T08:26:44;99876.20;;;22.19;22.46
48718;BME280;34521;33.042;-96.586;2023-12-04T08:29:09;99878.37;;;22.06;22.47
48718;BME280;34521;33.042;-96.586;2023-12-04T08:31:34;99883.23;;;22.26;22.50
48718;BME280;34521;33.042;-96.586;2023-12-04T08:33:59;99881.37;;;21.94;22.74
48718;BME280;34521;33.042;-96.586;2023-12-04T08:36:24;99881.91;;;21.58;23.05
48718;BME280;34521;33.042;-96.586;2023-12-04T08:38:49;99884.98;;;21.98;22.69
48718;BME280;34521;33.042;-96.586;2023-12-04T08:41:14;99889.18;;;22.29;22.15
48718;BME280;34521;33.042;-96.586;2023-12-04T08:43:39;99902.10;;;21.16;23.04
48718;BME280;34521;33.042;-96.586;2023-12-04T08:46:05;99907.40;;;19.15;25.49
48718;BME280;34521;33.042;-96.586;2023-12-04T08:48:29;99908.81;;;20.80;24.02
48718;BME280;34521;33.042;-96.586;2023-12-04T08:50:55;99915.09;;;20.72;23.81
48718;BME280;34521;33.042;-96.586;2023-12-04T08:53:20;99914.49;;;21.70;22.83
48718;BME280;34521;33.042;-96.586;2023-12-04T08:55:45;99910.43;;;22.09;22.25
48718;BME280;34521;33.042;-96.586;2023-12-04T08:58:10;99907.11;;;22.00;22.59
48718;BME280;34521;33.042;-96.586;2023-12-04T09:00:35;99910.07;;;22.12;22.50
48718;BME280;34521;33.042;-96.586;2023-12-04T09:03:00;99924.90;;;21.43;23.05
48718;BME280;34521;33.042;-96.586;2023-12-04T09:05:25;99930.50;;;21.48;23.00
48718;BME280;34521;33.042;-96.586;2023-12-04T09:07:50;99923.91;;;21.86;22.45
48718;BME280;34521;33.042;-96.586;2023-12-04T09:10:15;99929.01;;;22.36;22.15
48718;BME280;34521;33.042;-96.586;2023-12-04T09:12:41;99934.85;;;21.45;22.86
48718;BME280;34521;33.042;-96.586;2023-12-04T09:15:06;99944.95;;;20.54;23.65
48718;BME280;34521;33.042;-96.586;2023-12-04T09:17:30;99953.79;;;20.35;23.80
48718;BME280;34521;33.042;-96.586;2023-12-04T09:19:55;99958.98;;;21.26;23.20
48718;BME280;34521;33.042;-96.586;2023-12-04T09:22:20;99958.36;;;21.82;22.62
48718;BME280;34521;33.042;-96.586;2023-12-04T09:24:45;99953.30;;;22.16;22.23
48718;BME280;34521;33.042;-96.586;2023-12-04T09:27:11;99955.90;;;22.32;22.22
48718;BME280;34521;33.042;-96.586;2023-12-04T09:29:36;99960.87;;;22.06;22.38
48718;BME280;34521;33.042;-96.586;2023-12-04T09:32:01;99966.35;;;21.35;23.00
48718;BME280;34521;33.042;-96.586;2023-12-04T09:34:26;99966.42;;;21.68;22.75
48718;BME280;34521;33.042;-96.586;2023-12-04T09:36:51;99969.88;;;22.16;22.27
48718;BME280;34521;33.042;-96.586;2023-12-04T09:39:16;99974.76;;;21.99;22.32
48718;BME280;34521;33.042;-96.586;2023-12-04T09:41:42;99978.87;;;20.73;23.39
48718;BME280;34521;33.042;-96.586;2023-12-04T09:44:07;99977.95;;;19.80;24.57
48718;BME280;34521;33.042;-96.586;2023-12-04T09:46:31;99980.20;;;20.07;24.34
48718;BME280;34521;33.042;-96.586;2023-12-04T09:48:57;99985.04;;;21.58;23.02
48718;BME280;34521;33.042;-96.586;2023-12-04T09:51:22;99986.61;;;21.58;22.63
48718;BME280;34521;33.042;-96.586;2023-12-04T09:53:48;99989.96;;;22.08;22.21
48718;BME280;34521;33.042;-96.586;2023-12-04T09:56:11;99991.31;;;22.16;22.23
48718;BME280;34521;33.042;-96.586;2023-12-04T09:58:40;99992.35;;;21.59;22.50
48718;BME280;34521;33.042;-96.586;2023-12-04T10:01:02;99997.60;;;21.59;22.77
48718;BME280;34521;33.042;-96.586;2023-12-04T10:03:26;100003.32;;;21.08;23.00
48718;BME280;34521;33.042;-96.586;2023-12-04T10:05:53;100006.74;;;22.17;22.24
48718;BME280;34521;33.042;-96.586;2023-12-04T10:08:17;100002.78;;;21.88;22.36
48718;BME280;34521;33.042;-96.586;2023-12-04T10:10:42;100004.15;;;21.85;22.34
48718;BME280;34521;33.042;-96.586;2023-12-04T10:13:07;100006.52;;;20.63;23.34
48718;BME280;34521;33.042;-96.586;2023-12-04T10:15:32;100007.00;;;20.04;23.84
48718;BME280;34521;33.042;-96.586;2023-12-04T10:17:57;100010.38;;;20.24;23.70
48718;BME280;34521;33.042;-96.586;2023-12-04T10:20:22;100004.33;;;21.50;22.75
48718;BME280;34521;33.042;-96.586;2023-12-04T10:22:53;100004.54;;;22.16;22.07
48718;BME280;34521;33.042;-96.586;2023-12-04T10:25:15;100012.06;;;22.23;22.02
48718;BME280;34521;33.042;-96.586;2023-12-04T10:27:37;100005.88;;;21.83;22.39
48718;BME280;34521;33.042;-96.586;2023-12-04T10:30:02;100010.05;;;21.64;22.54
48718;BME280;34521;33.042;-96.586;2023-12-04T10:32:27;100014.48;;;21.74;22.51
48718;BME280;34521;33.042;-96.586;2023-12-04T10:34:54;100010.47;;;21.84;22.16
48718;BME280;34521;33.042;-96.586;2023-12-04T10:37:17;100016.23;;;22.55;21.71
48718;BME280;34521;33.042;-96.586;2023-12-04T10:39:49;100016.19;;;21.17;22.77
48718;BME280;34521;33.042;-96.586;2023-12-04T10:42:07;100020.43;;;21.23;22.75
48718;BME280;34521;33.042;-96.586;2023-12-04T10:44:32;100024.88;;;18.81;25.27
48718;BME280;34521;33.042;-96.586;2023-12-04T10:46:58;100030.46;;;20.31;23.87
48718;BME280;34521;33.042;-96.586;2023-12-04T10:49:23;100034.17;;;21.29;22.89
48718;BME280;34521;33.042;-96.586;2023-12-04T10:51:48;100035.02;;;21.72;22.25
48718;BME280;34521;33.042;-96.586;2023-12-04T10:54:13;100034.93;;;21.75;22.26
48718;BME280;34521;33.042;-96.586;2023-12-04T10:56:39;100034.51;;;21.88;22.22
48718;BME280;34521;33.042;-96.586;2023-12-04T10:59:04;100038.19;;;21.94;22.26
48718;BME280;34521;33.042;-96.586;2023-12-04T11:01:28;100046.32;;;21.88;22.24
48718;BME280;34521;33.042;-96.586;2023-12-04T11:03:56;100054.30;;;21.43;22.40
48718;BME280;34521;33.042;-96.586;2023-12-04T11:06:20;100049.43;;;21.91;22.14
48718;BME280;34521;33.042;-96.586;2023-12-04T11:08:43;100045.96;;;21.44;22.20
48718;BME280;34521;33.042;-96.586;2023-12-04T11:11:12;100051.02;;;21.25;22.57
48718;BME280;34521;33.042;-96.586;2023-12-04T11:13:37;100052.15;;;20.00;23.67
48718;BME280;34521;33.042;-96.586;2023-12-04T11:16:02;100054.75;;;20.23;23.83
48718;BME280;34521;33.042;-96.586;2023-12-04T11:18:24;100053.76;;;20.82;23.09
48718;BME280;34521;33.042;-96.586;2023-12-04T11:20:54;100061.07;;;21.44;22.47
48718;BME280;34521;33.042;-96.586;2023-12-04T11:23:14;100070.20;;;22.05;21.92
48718;BME280;34521;33.042;-96.586;2023-12-04T11:25:38;100078.48;;;22.11;21.93
48718;BME280;34521;33.042;-96.586;2023-12-04T11:28:04;100083.36;;;21.25;22.56
48718;BME280;34521;33.042;-96.586;2023-12-04T11:30:29;100081.62;;;21.72;22.29
48718;BME280;34521;33.042;-96.586;2023-12-04T11:32:54;100084.10;;;21.88;22.08
48718;BME280;34521;33.042;-96.586;2023-12-04T11:35:20;100089.40;;;22.51;21.45
48718;BME280;34521;33.042;-96.586;2023-12-04T11:37:45;100101.16;;;20.66;22.70
48718;BME280;34521;33.042;-96.586;2023-12-04T11:40:12;100110.87;;;20.36;23.14
48718;BME280;34521;33.042;-96.586;2023-12-04T11:42:34;100117.45;;;20.39;23.15
48718;BME280;34521;33.042;-96.586;2023-12-04T11:44:59;100118.01;;;21.41;22.44
48718;BME280;34521;33.042;-96.586;2023-12-04T11:47:24;100115.18;;;21.82;22.01
48718;BME280;34521;33.042;-96.586;2023-12-04T11:49:49;100119.81;;;21.99;22.01
48718;BME280;34521;33.042;-96.586;2023-12-04T11:52:14;100125.68;;;22.12;21.78
48718;BME280;34521;33.042;-96.586;2023-12-04T11:54:56;100128.32;;;21.36;22.48
48718;BME280;34521;33.042;-96.586;2023-12-04T11:59:30;100138.47;;;21.88;21.99
48718;BME280;34521;33.042;-96.586;2023-12-04T12:01:55;100140.47;;;21.67;22.08
48718;BME280;34521;33.042;-96.586;2023-12-04T12:04:21;100151.99;;;21.35;22.18
48718;BME280;34521;33.042;-96.586;2023-12-04T12:06:45;100157.60;;;20.60;22.84
48718;BME280;34521;33.042;-96.586;2023-12-04T12:09:09;100160.51;;;21.02;22.65
48718;BME280;34521;33.042;-96.586;2023-12-04T12:11:35;100161.15;;;21.78;21.98
48718;BME280;34521;33.042;-96.586;2023-12-04T12:14:00;100160.47;;;21.97;21.76
48718;BME280;34521;33.042;-96.586;2023-12-04T12:16:25;100161.93;;;22.08;21.71
48718;BME280;34521;33.042;-96.586;2023-12-04T12:18:50;100164.65;;;22.14;21.92
48718;BME280;34521;33.042;-96.586;2023-12-04T12:21:15;100173.95;;;21.66;22.13
48718;BME280;34521;33.042;-96.586;2023-12-04T12:23:40;100180.42;;;21.16;22.53
48718;BME280;34521;33.042;-96.586;2023-12-04T12:26:05;100185.76;;;21.59;22.10
48718;BME280;34521;33.042;-96.586;2023-12-04T12:28:30;100193.90;;;20.84;22.63